Terminal Aerodrome Forecast
Issued by NWS

Home | Current Version | Previous Version | Text Only | Print | Product List | Glossary On
Versions: 1 2 3 4 5 6 7 8 9 10 11 12 13
000
FTUS45 KTFX 240520
TAFBZN
TAF
KBZN 240520Z 2406/2506 VRB06KT P6SM SCT050 BKN100
     FM240900 VRB06KT P6SM OVC035
      TEMPO 2409/2411 3SM BR OVC015
     FM241500 VRB06KT P6SM BKN100=

USA.gov is the U.S. government's official web portal to all federal, state and local government web resources and services.